Time;durP1;ratioP1;P1;durP2;ratioP2;P2;SDS_P1;SDS_P2;PMS_P1;PMS_P2;Temp;Humidity;BMP_temperature;BMP_pressure;BME280_temperature;BME280_humidity;BME280_pressure;Samples;Min_cycle;Max_cycle;Signal;HPM_P1;HPM_P2
2022/08/04 00:02:37;;;;;;;7.15;5.10;;;;;;;19.97;68.17;95090.63;5025529;28;20202;-65
2022/08/04 00:05:05;;;;;;;5.10;4.60;;;;;;;19.90;68.62;95094.34;4994544;28;20256;-64
2022/08/04 00:07:40;;;;;;;6.25;5.50;;;;;;;20.09;67.69;95092.66;5004370;28;20202;-64
2022/08/04 00:10:07;;;;;;;7.70;5.38;;;;;;;19.98;67.77;95092.25;4986723;28;20231;-64
2022/08/04 00:12:41;;;;;;;6.65;5.07;;;;;;;19.86;68.46;95101.09;5007851;28;20426;-64
2022/08/04 00:15:10;;;;;;;5.57;4.50;;;;;;;19.97;66.60;95095.16;4993186;28;20366;-64
2022/08/04 00:18:00;;;;;;;5.72;4.55;;;;;;;20.09;65.24;95095.31;5008603;28;20723;-64
2022/08/04 00:20:31;;;;;;;6.55;4.38;;;;;;;19.98;64.06;95086.09;4995707;28;20261;-64
2022/08/04 00:22:58;;;;;;;5.82;4.15;;;;;;;20.03;63.30;95080.97;5008771;28;20310;-65
2022/08/04 00:25:24;;;;;;;6.60;4.90;;;;;;;19.97;63.14;95079.97;5009144;28;20402;-65
2022/08/04 00:27:50;;;;;;;5.20;4.25;;;;;;;20.01;63.41;95075.00;5006104;28;20235;-65
2022/08/04 00:30:16;;;;;;;4.82;4.38;;;;;;;20.08;62.88;95067.00;5006775;28;20314;-64
2022/08/04 00:32:42;;;;;;;8.13;4.97;;;;;;;20.08;62.78;95069.66;5002405;28;20306;-64
2022/08/04 00:35:08;;;;;;;5.93;4.38;;;;;;;20.15;62.57;95073.13;5004199;28;20321;-64
2022/08/04 00:37:36;;;;;;;6.75;5.15;;;;;;;20.03;63.00;95079.13;5008953;28;20233;-64
2022/08/04 00:40:12;;;;;;;6.00;4.78;;;;;;;19.80;64.29;95087.56;4993795;28;20227;-64
2022/08/04 00:42:57;;;;;;;5.30;4.53;;;;;;;19.76;64.77;95083.69;5032026;28;20246;-64
2022/08/04 00:45:29;;;;;;;7.03;4.80;;;;;;;19.62;65.62;95090.03;5041324;28;20236;-64
2022/08/04 00:48:23;;;;;;;7.63;4.55;;;;;;;19.67;65.55;95082.22;5017253;28;20627;-64
2022/08/04 00:51:13;;;;;;;7.00;4.68;;;;;;;19.68;65.80;95089.22;5006265;28;20226;-64
2022/08/04 00:53:44;;;;;;;4.57;4.18;;;;;;;19.88;64.92;95091.03;5010360;28;20233;-64
2022/08/04 00:56:19;;;;;;;7.97;4.88;;;;;;;19.80;65.08;95089.41;5028095;28;20217;-64
2022/08/04 00:59:10;;;;;;;6.15;4.35;;;;;;;19.50;65.82;95089.00;5007247;28;20213;-64
2022/08/04 01:01:48;;;;;;;6.55;4.28;;;;;;;19.69;64.98;95096.19;5007541;28;20222;-64
2022/08/04 01:04:39;;;;;;;5.97;3.85;;;;;;;19.63;64.28;95097.00;5007205;28;20233;-64
2022/08/04 01:07:52;;;;;;;5.68;3.90;;;;;;;19.50;64.89;95103.16;5007402;28;20228;-64
2022/08/04 01:10:35;;;;;;;4.85;3.78;;;;;;;19.45;64.99;95104.78;4966109;28;20242;-64
2022/08/04 01:13:38;;;;;;;5.28;4.07;;;;;;;19.55;64.68;95111.34;4953099;28;20264;-64
2022/08/04 01:16:06;;;;;;;6.65;4.07;;;;;;;19.45;65.33;95110.94;4966659;28;20227;-64
2022/08/04 01:18:40;;;;;;;5.47;4.35;;;;;;;19.46;64.92;95111.75;4946153;28;20228;-64
2022/08/04 01:21:14;;;;;;;5.28;4.40;;;;;;;19.26;64.25;95095.75;4948300;28;20231;-65
2022/08/04 01:24:12;;;;;;;4.85;3.90;;;;;;;19.37;63.79;95108.47;4964482;28;20326;-65
2022/08/04 01:27:08;;;;;;;5.47;4.38;;;;;;;19.36;63.50;95097.00;4903205;29;20234;-64
2022/08/04 01:29:42;;;;;;;5.15;4.18;;;;;;;19.45;63.53;95100.28;4910481;29;20237;-65
2022/08/04 01:32:19;;;;;;;4.35;3.95;;;;;;;19.56;62.59;95098.84;4918995;29;20320;-63
2022/08/04 01:35:12;;;;;;;5.70;4.35;;;;;;;19.58;62.89;95091.47;5049012;27;20592;-64
2022/08/04 01:37:49;;;;;;;4.97;4.57;;;;;;;19.55;63.38;95090.00;5012563;28;20269;-65
2022/08/04 01:40:15;;;;;;;5.38;4.25;;;;;;;19.34;64.56;95093.69;4995070;28;20219;-64
2022/08/04 01:42:42;;;;;;;5.75;4.13;;;;;;;19.11;65.92;95087.94;5005811;28;20377;-65
2022/08/04 01:45:10;;;;;;;4.32;3.92;;;;;;;19.07;66.04;95092.03;4997818;28;20315;-64
2022/08/04 01:47:41;;;;;;;5.70;4.13;;;;;;;19.33;65.30;95089.41;4995034;28;20215;-65
2022/08/04 01:50:08;;;;;;;4.57;4.18;;;;;;;19.25;65.31;95094.94;5009487;28;20215;-64
2022/08/04 01:52:36;;;;;;;5.03;4.25;;;;;;;19.08;66.14;95094.47;5006978;28;20218;-65
2022/08/04 01:55:04;;;;;;;4.72;4.32;;;;;;;19.11;65.93;95094.09;5009318;28;20242;-65
2022/08/04 01:57:32;;;;;;;6.43;4.53;;;;;;;19.10;65.97;95092.44;5014557;28;20254;-65
2022/08/04 01:59:58;;;;;;;8.38;5.38;;;;;;;19.18;65.80;95091.44;5015180;28;20277;-64
2022/08/04 02:02:24;;;;;;;5.50;5.00;;;;;;;18.66;67.51;95090.28;5020874;28;20245;-64
2022/08/04 02:04:50;;;;;;;5.97;5.03;;;;;;;18.57;67.97;95094.94;5023059;28;20230;-64
2022/08/04 02:07:26;;;;;;;7.72;4.55;;;;;;;18.64;68.23;95092.31;5000285;28;20710;-64
2022/08/04 02:10:18;;;;;;;5.88;4.40;;;;;;;18.69;68.45;95095.19;4996342;28;20281;-64
2022/08/04 02:12:56;;;;;;;6.85;4.47;;;;;;;18.63;68.69;95093.31;4992869;28;20738;-64
2022/08/04 02:15:29;;;;;;;6.65;4.55;;;;;;;18.83;67.96;95093.41;4993467;28;20689;-63
2022/08/04 02:18:28;;;;;;;6.90;4.40;;;;;;;18.74;67.76;95082.09;4997103;28;20757;-64
2022/08/04 02:21:01;;;;;;;5.25;4.22;;;;;;;18.91;67.25;95090.56;5026988;28;20233;-64
2022/08/04 02:23:30;;;;;;;6.68;4.63;;;;;;;18.92;66.31;95090.38;5026688;28;20230;-64
2022/08/04 02:26:19;;;;;;;4.68;4.28;;;;;;;18.89;66.13;95090.75;5041708;28;20339;-64
2022/08/04 02:28:59;;;;;;;5.90;4.07;;;;;;;19.18;65.21;95089.59;5040227;28;20228;-65
2022/08/04 02:31:38;;;;;;;5.10;4.35;;;;;;;19.22;64.62;95081.19;5041117;28;20279;-64
2022/08/04 02:34:18;;;;;;;8.27;4.70;;;;;;;18.99;64.68;95085.06;5023732;28;20390;-64
2022/08/04 02:36:46;;;;;;;7.20;4.55;;;;;;;18.78;66.14;95078.03;5020483;28;20218;-64
2022/08/04 02:39:12;;;;;;;4.78;4.38;;;;;;;18.68;66.89;95080.22;5038147;28;20297;-63
2022/08/04 02:41:39;;;;;;;4.68;4.20;;;;;;;18.84;66.09;95089.72;5025525;28;20301;-64
2022/08/04 02:44:07;;;;;;;7.97;4.20;;;;;;;18.64;66.39;95085.13;5026469;28;20202;-63
2022/08/04 02:46:34;;;;;;;4.57;4.18;;;;;;;18.77;66.22;95092.38;5008453;28;20234;-65
2022/08/04 02:49:08;;;;;;;7.75;4.70;;;;;;;18.73;66.44;95094.56;5008583;28;20321;-64
2022/08/04 02:51:50;;;;;;;5.47;4.50;;;;;;;18.72;66.29;95086.81;5004269;28;20227;-65
2022/08/04 02:54:18;;;;;;;5.93;4.85;;;;;;;18.66;66.13;95101.75;5006166;28;20237;-64
2022/08/04 02:56:45;;;;;;;7.40;5.03;;;;;;;18.90;65.33;95097.75;5000265;28;20237;-63
2022/08/04 02:59:12;;;;;;;6.65;4.82;;;;;;;18.78;65.28;95091.34;5002552;28;20215;-65
2022/08/04 03:01:38;;;;;;;9.20;4.68;;;;;;;18.56;66.28;95097.81;4988888;28;20306;-64
2022/08/04 03:04:16;;;;;;;5.38;4.22;;;;;;;18.40;65.78;95098.97;4990763;28;20227;-64
2022/08/04 03:07:33;;;;;;;4.85;4.30;;;;;;;18.29;66.48;95098.50;4990234;28;20231;-64
2022/08/04 03:10:24;;;;;;;4.30;3.95;;;;;;;18.44;66.50;95103.72;4968222;28;20242;-64
2022/08/04 03:13:20;;;;;;;8.18;4.28;;;;;;;18.39;66.67;95099.97;4998626;28;20227;-64
2022/08/04 03:15:57;;;;;;;5.30;4.80;;;;;;;18.56;66.20;95105.81;4989314;28;20230;-65
2022/08/04 03:18:47;;;;;;;5.72;5.15;;;;;;;18.63;65.70;95106.63;4993203;28;20791;-64
2022/08/04 03:21:39;;;;;;;5.75;4.88;;;;;;;18.90;64.88;95103.06;4978167;28;20216;-63
2022/08/04 03:24:42;;;;;;;6.75;4.80;;;;;;;18.65;66.22;95099.25;4975792;28;20231;-63
2022/08/04 03:27:14;;;;;;;7.38;4.95;;;;;;;18.66;66.13;95099.06;5005524;28;20265;-64
2022/08/04 03:29:42;;;;;;;6.68;5.35;;;;;;;18.55;66.45;95097.00;5025943;28;20226;-64
2022/08/04 03:32:45;;;;;;;6.78;4.90;;;;;;;18.60;66.35;95099.03;5010358;28;20237;-64
2022/08/04 03:35:32;;;;;;;7.38;5.10;;;;;;;18.36;67.61;95095.88;4992199;28;20230;-63
2022/08/04 03:38:27;;;;;;;4.97;4.53;;;;;;;18.44;67.63;95098.38;5003880;28;20246;-64
2022/08/04 03:41:02;;;;;;;6.30;4.88;;;;;;;18.54;67.03;95097.19;5005157;28;20269;-63
2022/08/04 03:43:56;;;;;;;6.20;5.25;;;;;;;18.67;66.55;95095.38;4984520;28;20215;-63
2022/08/04 03:46:22;;;;;;;6.47;5.35;;;;;;;18.30;68.81;95100.13;4913513;29;20252;-64
2022/08/04 03:49:18;;;;;;;5.13;4.72;;;;;;;18.32;68.62;95099.97;4923254;29;20234;-64
2022/08/04 03:55:29;;;;;;;7.97;5.60;;;;;;;18.59;67.65;95098.22;4941572;29;20638;-63
2022/08/04 03:58:07;;;;;;;6.78;5.63;;;;;;;18.68;67.34;95101.53;4926600;29;20239;-63
2022/08/04 04:00:44;;;;;;;8.10;5.50;;;;;;;18.41;68.79;95098.75;4927625;29;20232;-63
2022/08/04 04:03:34;;;;;;;5.93;5.28;;;;;;;18.41;69.10;95098.75;4921636;29;20232;-64
2022/08/04 04:06:09;;;;;;;7.78;5.30;;;;;;;18.71;67.92;95098.47;4918575;29;20283;-63
2022/08/04 04:08:59;;;;;;;8.95;5.53;;;;;;;18.99;66.57;95102.88;4930154;29;20263;-65
2022/08/04 04:11:57;;;;;;;7.85;4.95;;;;;;;19.06;65.25;95099.22;4923115;29;20669;-64
2022/08/04 04:14:50;;;;;;;5.20;4.70;;;;;;;19.17;63.82;95103.13;4910951;28;20380;-63
2022/08/04 04:17:16;;;;;;;5.85;4.63;;;;;;;19.17;63.58;95109.28;4924009;28;20212;-64
2022/08/04 04:19:53;;;;;;;5.80;4.50;;;;;;;19.28;62.19;95109.72;4928412;29;20213;-64
2022/08/04 04:22:39;;;;;;;6.70;4.22;;;;;;;18.99;63.67;95117.03;4938377;28;20231;-64
2022/08/04 04:25:17;;;;;;;6.38;4.80;;;;;;;19.12;63.58;95126.91;4973375;28;20319;-64
2022/08/04 04:28:05;;;;;;;8.88;4.90;;;;;;;19.00;65.31;95112.50;4965263;28;20577;-65
2022/08/04 04:30:30;;;;;;;6.82;5.32;;;;;;;18.99;66.23;95113.53;4950105;28;20223;-64
2022/08/04 04:33:17;;;;;;;6.00;5.30;;;;;;;19.01;66.53;95108.84;4963933;28;20228;-65
2022/08/04 04:36:23;;;;;;;8.10;5.78;;;;;;;19.10;66.39;95112.94;4990219;28;20238;-65
2022/08/04 04:39:12;;;;;;;6.65;6.00;;;;;;;19.06;66.69;95106.38;4991614;28;20324;-64
2022/08/04 04:41:49;;;;;;;9.75;6.03;;;;;;;18.88;67.21;95110.44;4995820;28;20246;-64
2022/08/04 04:44:45;;;;;;;7.65;6.65;;;;;;;18.80;67.62;95123.13;5005391;28;20305;-64
2022/08/04 04:47:36;;;;;;;8.35;6.15;;;;;;;19.00;67.25;95125.84;5001434;28;20206;-65
2022/08/04 04:50:16;;;;;;;7.50;6.43;;;;;;;19.04;67.04;95124.44;5002205;28;20378;-64
2022/08/04 04:52:52;;;;;;;9.93;7.18;;;;;;;19.12;67.07;95126.91;4984484;28;20241;-64
2022/08/04 04:55:25;;;;;;;8.73;7.10;;;;;;;18.92;67.34;95121.50;4998254;28;20250;-64
2022/08/04 04:57:55;;;;;;;7.78;6.65;;;;;;;19.12;66.86;95117.06;4985842;28;20257;-64
2022/08/04 05:00:25;;;;;;;9.52;7.07;;;;;;;19.13;66.80;95112.53;5010081;28;20717;-65
2022/08/04 05:03:11;;;;;;;10.45;7.45;;;;;;;19.10;67.37;95118.28;4983319;28;20876;-66
2022/08/04 05:05:45;;;;;;;8.55;7.68;;;;;;;19.21;67.02;95116.88;4999983;28;20317;-65
2022/08/04 05:08:54;;;;;;;9.60;6.93;;;;;;;19.20;66.98;95117.91;4984051;28;20198;-65
2022/08/04 05:11:45;;;;;;;8.65;7.93;;;;;;;19.22;67.36;95121.16;4999602;28;20348;-63
2022/08/04 05:14:24;;;;;;;9.07;8.15;;;;;;;19.32;67.12;95125.06;4996013;28;20804;-66
2022/08/04 05:16:58;;;;;;;10.15;8.27;;;;;;;19.06;67.63;95131.19;5004414;28;20342;-64
2022/08/04 05:19:33;;;;;;;10.02;8.88;;;;;;;19.09;68.03;95132.63;4985652;28;20215;-64
2022/08/04 05:22:05;;;;;;;10.35;8.82;;;;;;;19.18;67.90;95134.09;4987541;28;20231;-64
2022/08/04 05:24:36;;;;;;;10.27;8.73;;;;;;;19.35;67.09;95130.03;4985016;28;20231;-63
2022/08/04 05:27:08;;;;;;;11.52;8.77;;;;;;;19.37;66.75;95125.28;5013707;28;20234;-64
2022/08/04 05:29:36;;;;;;;11.07;10.10;;;;;;;19.29;67.13;95132.66;4974682;28;20341;-65
2022/08/04 05:32:06;;;;;;;10.43;9.38;;;;;;;19.30;67.30;95135.13;4984147;28;20546;-64
2022/08/04 05:34:41;;;;;;;10.20;9.15;;;;;;;19.26;66.76;95133.06;5007854;28;20321;-65
2022/08/04 05:37:16;;;;;;;8.73;7.88;;;;;;;19.50;65.88;95137.00;5013212;28;20237;-64
2022/08/04 05:39:45;;;;;;;11.13;8.95;;;;;;;19.67;64.94;95140.09;4981556;28;20238;-64
2022/08/04 05:42:11;;;;;;;10.45;8.18;;;;;;;19.86;63.79;95141.13;4991420;28;20228;-63
2022/08/04 05:44:39;;;;;;;11.00;8.20;;;;;;;19.83;62.99;95137.03;4980882;28;20729;-64
2022/08/04 05:47:06;;;;;;;8.82;7.97;;;;;;;19.87;63.44;95138.25;5001651;28;20206;-63
2022/08/04 05:49:33;;;;;;;9.15;8.23;;;;;;;19.89;62.31;95140.72;4986318;28;20310;-64
2022/08/04 05:52:02;;;;;;;11.10;8.05;;;;;;;20.11;62.37;95136.81;4997831;28;20225;-66
2022/08/04 05:54:30;;;;;;;8.25;7.28;;;;;;;20.22;61.64;95128.16;4994001;28;20300;-65
2022/08/04 05:56:57;;;;;;;8.40;7.15;;;;;;;20.46;60.86;95128.50;4989478;28;20274;-66
2022/08/04 05:59:27;;;;;;;10.23;7.53;;;;;;;20.59;59.93;95131.16;4986408;28;20211;-64
2022/08/04 06:01:55;;;;;;;8.00;7.30;;;;;;;20.39;60.63;95135.69;5002096;28;20295;-63
2022/08/04 06:04:23;;;;;;;13.13;7.43;;;;;;;20.65;59.90;95143.66;4983528;28;20305;-65
2022/08/04 06:06:49;;;;;;;7.40;6.70;;;;;;;20.70;60.24;95135.84;4980550;28;20251;-66
2022/08/04 06:09:15;;;;;;;9.80;7.13;;;;;;;20.75;60.24;95145.09;4988970;28;20259;-65
2022/08/04 06:11:43;;;;;;;6.75;6.15;;;;;;;20.81;59.88;95136.22;4988096;28;20729;-65
2022/08/04 06:14:12;;;;;;;7.05;6.40;;;;;;;20.76;59.03;95136.03;4985200;28;20239;-64
2022/08/04 06:16:41;;;;;;;7.70;7.00;;;;;;;20.87;58.89;95140.69;4978717;28;20303;-64
2022/08/04 06:19:09;;;;;;;7.18;6.10;;;;;;;20.76;59.42;95138.69;4975646;28;20702;-64
2022/08/04 06:21:38;;;;;;;7.75;5.80;;;;;;;20.58;60.15;95145.56;4987420;28;20227;-70
2022/08/04 06:24:09;;;;;;;11.38;7.10;;;;;;;20.85;58.89;95143.59;4988598;28;20388;-65
2022/08/04 06:26:35;;;;;;;7.13;5.90;;;;;;;20.88;59.08;95131.66;4991193;28;20307;-65
2022/08/04 06:29:03;;;;;;;6.88;6.22;;;;;;;20.97;59.09;95141.06;4987131;28;20207;-65
2022/08/04 06:31:42;;;;;;;7.47;6.57;;;;;;;21.14;58.88;95136.03;4992044;28;20219;-67
2022/08/04 06:34:10;;;;;;;9.75;6.80;;;;;;;21.32;58.59;95136.13;4976426;28;20250;-66
2022/08/04 06:36:37;;;;;;;8.60;6.35;;;;;;;21.66;57.56;95152.81;4987778;28;20339;-66
2022/08/04 06:39:04;;;;;;;9.98;6.55;;;;;;;21.74;56.34;95157.09;4993904;28;20227;-67
2022/08/04 06:41:31;;;;;;;7.95;6.60;;;;;;;21.76;56.28;95145.13;4990547;28;20231;-66
2022/08/04 06:44:24;;;;;;;7.85;7.03;;;;;;;21.83;55.23;95142.38;4997145;28;20226;-65
2022/08/04 06:46:51;;;;;;;7.43;6.70;;;;;;;21.71;55.89;95157.53;5009221;28;20313;-67
2022/08/04 06:49:18;;;;;;;7.05;6.43;;;;;;;21.39;56.68;95146.84;5009360;28;20238;-65
2022/08/04 06:51:45;;;;;;;10.77;6.95;;;;;;;21.41;56.80;95146.59;4992072;28;20238;-66
2022/08/04 06:54:10;;;;;;;9.05;5.90;;;;;;;21.39;56.72;95146.84;4985999;28;20231;-65
2022/08/04 06:56:38;;;;;;;7.32;6.18;;;;;;;21.43;56.56;95144.53;4986529;28;20223;-66
2022/08/04 06:59:07;;;;;;;6.95;6.20;;;;;;;21.47;56.68;95151.09;4992299;28;20250;-66
2022/08/04 07:01:35;;;;;;;7.05;6.28;;;;;;;21.40;57.31;95144.97;4994620;28;20325;-65
2022/08/04 07:04:02;;;;;;;8.07;6.05;;;;;;;21.43;57.30;95153.38;4992175;28;20238;-64
2022/08/04 07:06:27;;;;;;;7.22;6.60;;;;;;;20.99;57.47;95149.69;4998569;28;20211;-66
2022/08/04 07:08:55;;;;;;;6.88;6.20;;;;;;;20.96;57.53;95155.47;5002106;28;20231;-67
2022/08/04 07:11:20;;;;;;;9.75;6.53;;;;;;;21.49;56.45;95155.22;4976623;28;20215;-68
2022/08/04 07:13:48;;;;;;;7.63;6.75;;;;;;;21.69;55.90;95151.56;5006625;28;20263;-69
2022/08/04 07:16:15;;;;;;;8.63;7.05;;;;;;;21.89;55.11;95141.53;4991477;28;20303;-69
2022/08/04 07:18:41;;;;;;;8.52;7.35;;;;;;;22.07;54.71;95145.28;4986050;28;20227;-68
2022/08/04 07:21:07;;;;;;;8.05;7.10;;;;;;;22.30;54.35;95145.50;4981877;28;20290;-69
2022/08/04 07:23:33;;;;;;;12.57;7.40;;;;;;;22.58;52.99;95142.28;4986585;28;20227;-68
2022/08/04 07:25:59;;;;;;;7.78;6.97;;;;;;;22.65;51.80;95136.88;4985790;28;20214;-68
2022/08/04 07:28:27;;;;;;;8.43;7.63;;;;;;;22.77;51.79;95139.59;4988076;28;20259;-69
2022/08/04 07:30:54;;;;;;;9.60;8.45;;;;;;;22.76;51.59;95130.75;4984846;28;20235;-68
2022/08/04 07:33:21;;;;;;;10.35;9.35;;;;;;;22.74;51.93;95124.78;4984933;28;20320;-69
2022/08/04 07:35:50;;;;;;;8.90;7.82;;;;;;;22.80;50.77;95134.63;4993197;28;20335;-70
2022/08/04 07:38:16;;;;;;;12.23;8.60;;;;;;;22.73;50.96;95133.88;4982732;28;20324;-70
2022/08/04 07:40:42;;;;;;;10.20;8.73;;;;;;;22.97;51.14;95128.69;4984645;28;20662;-67
2022/08/04 07:43:08;;;;;;;8.05;7.35;;;;;;;23.07;50.57;95129.78;5000472;28;20222;-69
2022/08/04 07:45:33;;;;;;;9.55;7.80;;;;;;;23.09;50.33;95125.00;5001951;28;20231;-68
2022/08/04 07:48:00;;;;;;;11.45;8.10;;;;;;;23.30;49.03;95131.72;5005739;28;20230;-69
2022/08/04 07:50:27;;;;;;;8.60;7.65;;;;;;;23.26;49.74;95127.06;5008248;28;20242;-69
2022/08/04 07:52:53;;;;;;;8.68;7.45;;;;;;;23.56;49.34;95127.03;5009281;28;20214;-69
2022/08/04 07:55:19;;;;;;;8.52;7.63;;;;;;;23.82;48.81;95127.66;5007446;28;20223;-70
2022/08/04 07:57:45;;;;;;;9.52;8.65;;;;;;;24.01;48.48;95128.41;5002734;28;20634;-69
2022/08/04 08:00:13;;;;;;;13.98;8.30;;;;;;;24.10;47.80;95132.38;5006465;28;20300;-67
2022/08/04 08:02:41;;;;;;;8.25;7.45;;;;;;;24.09;48.40;95128.06;5003272;28;20233;-69
2022/08/04 08:05:12;;;;;;;8.05;7.25;;;;;;;24.26;48.10;95128.97;4986370;28;20200;-68
2022/08/04 08:07:38;;;;;;;8.18;7.40;;;;;;;24.27;47.78;95121.72;4980368;28;20263;-68
2022/08/04 08:10:04;;;;;;;7.38;6.63;;;;;;;24.26;47.57;95120.91;4983875;28;20230;-69
2022/08/04 08:12:32;;;;;;;8.43;7.60;;;;;;;24.29;47.41;95123.13;4984477;28;20239;-66
2022/08/04 08:14:58;;;;;;;11.68;8.10;;;;;;;24.56;47.33;95126.16;4991749;28;20231;-68
2022/08/04 08:17:23;;;;;;;11.77;7.75;;;;;;;24.80;47.00;95124.25;5000123;28;20199;-70
2022/08/04 08:19:52;;;;;;;8.15;7.32;;;;;;;24.76;47.07;95123.09;4984361;28;20207;-69
2022/08/04 08:22:17;;;;;;;9.18;7.15;;;;;;;24.93;47.00;95117.78;4982708;28;20238;-68
2022/08/04 08:24:43;;;;;;;7.25;6.45;;;;;;;25.02;46.65;95129.81;4989031;28;20223;-69
2022/08/04 08:27:09;;;;;;;9.82;6.82;;;;;;;25.01;45.98;95121.97;4985799;28;20235;-69
2022/08/04 08:29:34;;;;;;;7.30;5.70;;;;;;;25.01;45.52;95119.28;4982590;28;20314;-69
2022/08/04 08:32:01;;;;;;;11.30;6.28;;;;;;;25.05;46.00;95132.00;5005241;28;20238;-70
2022/08/04 08:34:28;;;;;;;6.65;6.00;;;;;;;25.20;43.40;95125.31;4986144;28;20234;-70
2022/08/04 08:37:03;;;;;;;7.50;5.50;;;;;;;25.05;43.59;95128.50;4991830;28;20227;-71
2022/08/04 08:39:35;;;;;;;8.57;6.35;;;;;;;24.86;44.89;95131.38;4978045;28;20241;-69
2022/08/04 08:42:12;;;;;;;7.15;6.32;;;;;;;24.89;46.04;95130.09;4985773;28;20222;-70
2022/08/04 08:45:02;;;;;;;6.60;5.63;;;;;;;24.94;45.41;95130.19;4989034;28;20274;-70
2022/08/04 08:47:46;;;;;;;5.88;5.15;;;;;;;25.19;43.76;95126.38;4993261;28;20286;-69
2022/08/04 08:50:46;;;;;;;6.72;4.65;;;;;;;25.28;43.18;95128.44;4983608;28;20211;-68
2022/08/04 08:53:43;;;;;;;4.15;3.85;;;;;;;25.43;41.00;95125.22;4992591;28;20310;-66
2022/08/04 08:56:36;;;;;;;4.60;3.83;;;;;;;25.59;41.36;95120.09;5010213;28;20223;-64
2022/08/04 08:59:32;;;;;;;8.23;4.43;;;;;;;25.66;42.83;95128.81;5000140;28;20209;-64
2022/08/04 09:02:05;;;;;;;8.18;4.47;;;;;;;26.00;41.84;95123.47;5000327;28;20313;-64
2022/08/04 09:05:11;;;;;;;6.45;4.82;;;;;;;26.10;41.66;95120.94;5019283;28;20233;-65
2022/08/04 09:08:05;;;;;;;5.30;4.40;;;;;;;26.23;41.56;95115.22;4999219;28;20223;-66
2022/08/04 09:10:40;;;;;;;4.97;4.47;;;;;;;25.95;41.72;95122.34;4993213;28;20265;-66
2022/08/04 09:13:23;;;;;;;4.88;4.47;;;;;;;26.25;40.34;95115.78;5005101;28;20226;-64
2022/08/04 09:16:05;;;;;;;5.20;4.60;;;;;;;26.36;41.10;95101.38;5000950;28;20263;-63
2022/08/04 09:18:41;;;;;;;4.60;4.20;;;;;;;26.56;40.85;95110.84;4995828;28;20305;-63
2022/08/04 09:21:09;;;;;;;6.15;4.10;;;;;;;26.69;40.50;95110.47;5000730;28;20229;-64
2022/08/04 09:24:13;;;;;;;6.13;4.13;;;;;;;26.66;41.12;95113.69;4994381;28;20279;-66
2022/08/04 09:26:45;;;;;;;4.68;4.13;;;;;;;26.76;40.28;95096.81;4890662;29;20309;-65
2022/08/04 09:29:16;;;;;;;8.57;4.05;;;;;;;26.90;38.62;95094.53;4886099;29;20225;-65
2022/08/04 09:32:01;;;;;;;5.18;3.55;;;;;;;26.83;38.58;95095.53;4870667;29;20572;-64
2022/08/04 09:35:02;;;;;;;4.72;4.20;;;;;;;26.98;39.42;95094.91;4870474;29;20242;-63
2022/08/04 09:37:52;;;;;;;9.18;4.65;;;;;;;27.33;39.57;95095.59;4886187;29;20269;-63
2022/08/04 09:40:57;;;;;;;7.28;4.40;;;;;;;27.46;38.62;95093.28;4886644;29;20261;-64
2022/08/04 09:43:53;;;;;;;5.03;4.07;;;;;;;27.70;37.91;95084.84;4862846;29;20505;-63
2022/08/04 09:46:52;;;;;;;4.45;3.53;;;;;;;27.80;36.76;95092.19;4849751;29;20234;-65
2022/08/04 09:49:30;;;;;;;3.78;3.47;;;;;;;27.85;33.93;95100.38;4865765;29;20227;-64
2022/08/04 09:52:15;;;;;;;4.40;2.92;;;;;;;27.82;32.34;95098.19;4847774;29;20240;-63
2022/08/04 09:55:08;;;;;;;3.72;2.80;;;;;;;28.01;32.65;95104.81;4849593;29;20238;-64
2022/08/04 09:58:01;;;;;;;3.95;3.03;;;;;;;27.99;32.74;95098.88;4869560;29;20238;-63
2022/08/04 10:00:33;;;;;;;3.83;3.25;;;;;;;27.56;32.13;95084.47;4871556;29;20235;-65
2022/08/04 10:03:02;;;;;;;4.25;3.88;;;;;;;27.69;33.79;95089.44;4891156;28;20228;-64
2022/08/04 10:06:05;;;;;;;5.10;4.03;;;;;;;27.75;35.53;95089.47;4933199;28;20787;-64
2022/08/04 10:08:43;;;;;;;3.53;3.22;;;;;;;27.60;34.05;95085.56;4944184;28;20307;-65
2022/08/04 10:11:15;;;;;;;3.40;3.10;;;;;;;27.53;32.83;95082.25;4948513;28;20208;-63
2022/08/04 10:13:55;;;;;;;3.53;3.22;;;;;;;27.72;32.74;95080.00;4939857;29;20256;-64
2022/08/04 10:16:39;;;;;;;4.50;3.78;;;;;;;27.84;33.37;95083.34;4950188;28;20239;-62
2022/08/04 10:19:26;;;;;;;3.88;3.53;;;;;;;27.84;34.51;95083.34;4929124;28;20237;-63
2022/08/04 10:21:57;;;;;;;4.43;4.03;;;;;;;27.87;33.35;95080.13;5002491;28;20219;-63
2022/08/04 10:24:48;;;;;;;3.90;3.53;;;;;;;27.74;34.57;95077.03;4995953;28;20231;-64
2022/08/04 10:27:42;;;;;;;5.70;3.45;;;;;;;28.01;34.94;95072.41;4997303;28;20234;-64
2022/08/04 10:30:12;;;;;;;3.25;3.03;;;;;;;27.97;32.09;95076.72;5007878;28;20226;-63
2022/08/04 10:33:11;;;;;;;3.88;3.53;;;;;;;28.09;30.77;95066.53;5005956;28;20228;-64
2022/08/04 10:35:45;;;;;;;3.42;3.13;;;;;;;28.42;31.41;95061.03;4988510;28;20297;-64
2022/08/04 10:38:17;;;;;;;3.92;3.05;;;;;;;28.51;29.52;95065.69;4990250;28;20206;-64
2022/08/04 10:40:48;;;;;;;4.80;3.83;;;;;;;28.49;30.29;95065.13;4981516;28;20219;-63
2022/08/04 10:43:52;;;;;;;4.63;3.60;;;;;;;28.55;30.59;95066.81;4981596;28;20232;-62
2022/08/04 10:46:29;;;;;;;4.18;3.88;;;;;;;28.73;31.48;95056.59;4992105;28;20343;-62
2022/08/04 10:49:03;;;;;;;3.78;3.47;;;;;;;28.98;30.44;95059.38;5003492;28;20219;-64
2022/08/04 10:51:28;;;;;;;4.00;3.65;;;;;;;28.88;29.78;95053.94;4991483;28;20215;-63
2022/08/04 10:54:05;;;;;;;4.68;3.65;;;;;;;29.14;31.58;95056.75;4983957;28;20224;-63
2022/08/04 10:56:56;;;;;;;5.55;3.90;;;;;;;28.83;29.70;95056.63;4984747;28;20218;-62
2022/08/04 10:59:28;;;;;;;4.05;3.15;;;;;;;29.23;31.59;95061.38;4962262;28;20215;-63
2022/08/04 11:02:01;;;;;;;3.70;3.40;;;;;;;29.42;29.18;95052.72;4968278;28;20258;-65
2022/08/04 11:04:57;;;;;;;4.30;3.60;;;;;;;29.63;30.01;95057.06;4986009;28;20251;-65
2022/08/04 11:07:23;;;;;;;3.88;3.10;;;;;;;29.70;27.79;95056.00;4997857;28;20224;-62
2022/08/04 11:09:50;;;;;;;4.25;3.10;;;;;;;29.67;26.31;95047.38;4987921;28;20836;-63
2022/08/04 11:12:20;;;;;;;2.70;2.50;;;;;;;29.70;26.63;95037.88;4993730;28;20233;-65
2022/08/04 11:14:54;;;;;;;5.32;2.92;;;;;;;29.88;26.83;95042.75;4968151;28;20804;-65
2022/08/04 11:17:27;;;;;;;3.15;2.85;;;;;;;30.02;28.28;95040.28;4978588;28;20218;-62
2022/08/04 11:20:25;;;;;;;5.15;3.22;;;;;;;30.15;26.99;95038.88;4981918;28;20227;-63
2022/08/04 11:22:56;;;;;;;3.17;2.85;;;;;;;30.13;27.38;95032.94;4984919;28;20230;-63
2022/08/04 11:25:27;;;;;;;5.40;2.97;;;;;;;30.10;27.94;95036.22;5004397;28;20214;-65
2022/08/04 11:28:01;;;;;;;4.70;2.92;;;;;;;30.16;27.91;95037.81;4981820;28;20241;-64
2022/08/04 11:30:36;;;;;;;3.00;2.63;;;;;;;30.64;26.62;95029.28;4983550;28;20317;-63
2022/08/04 11:33:26;;;;;;;2.85;2.65;;;;;;;30.52;26.65;95037.75;4990600;28;20231;-65
2022/08/04 11:36:01;;;;;;;4.90;2.75;;;;;;;31.03;27.10;95026.66;4978291;28;20770;-64
2022/08/04 11:38:58;;;;;;;5.63;2.95;;;;;;;31.15;28.00;95029.88;4986447;28;20262;-64
2022/08/04 11:41:53;;;;;;;3.00;2.70;;;;;;;31.04;26.62;95028.31;4996304;28;20227;-65
2022/08/04 11:44:44;;;;;;;2.97;2.60;;;;;;;30.64;26.18;95027.38;4975889;28;20238;-67
2022/08/04 11:47:21;;;;;;;3.40;2.70;;;;;;;30.40;24.81;95029.13;4965137;28;20750;-66
2022/08/04 11:50:08;;;;;;;2.90;2.55;;;;;;;30.17;26.06;95020.44;4988367;28;20211;-65
2022/08/04 11:52:39;;;;;;;3.47;3.17;;;;;;;30.63;27.37;95017.59;4917791;29;20272;-66
2022/08/04 11:55:08;;;;;;;5.60;3.50;;;;;;;31.26;26.25;95019.75;4915338;29;20232;-63
2022/08/04 11:57:34;;;;;;;2.90;2.70;;;;;;;31.70;24.79;95018.06;4931303;29;20324;-65
2022/08/04 12:00:04;;;;;;;3.40;3.10;;;;;;;31.95;26.27;95026.03;4915567;29;20237;-65
2022/08/04 12:02:49;;;;;;;3.10;2.90;;;;;;;31.91;24.93;95024.94;4928928;29;20405;-66
2022/08/04 12:05:20;;;;;;;2.88;2.67;;;;;;;32.02;24.07;95017.53;4911198;29;20309;-63
2022/08/04 12:08:10;;;;;;;2.65;2.45;;;;;;;32.12;24.23;95016.63;4926904;29;20213;-65
2022/08/04 12:10:44;;;;;;;2.85;2.42;;;;;;;32.53;24.99;95010.75;4930228;29;20227;-65
2022/08/04 12:14:08;;;;;;;3.58;2.67;;;;;;;32.28;24.04;95018.09;4917546;29;20260;-64
2022/08/04 12:16:57;;;;;;;3.40;3.10;;;;;;;32.27;25.82;95016.47;4859382;29;20239;-64
2022/08/04 12:19:29;;;;;;;3.70;2.70;;;;;;;32.30;23.81;95021.34;4840263;29;20228;-63
2022/08/04 12:21:59;;;;;;;2.80;2.60;;;;;;;32.45;24.68;95028.50;4852262;29;20236;-64